createdAt,value
2022-12-09T00:01:10.433Z,34.83
2022-12-09T00:03:39.180Z,35.63
2022-12-09T00:06:08.514Z,36.73
2022-12-09T00:08:36.755Z,35.43
2022-12-09T00:11:05.100Z,37.40
2022-12-09T00:13:32.746Z,35.93
2022-12-09T00:16:05.893Z,35.60
2022-12-09T00:18:34.003Z,36.57
2022-12-09T00:21:12.535Z,35.57
2022-12-09T00:23:40.322Z,37.57
2022-12-09T00:26:08.422Z,36.53
2022-12-09T00:28:36.271Z,37.00
2022-12-09T00:31:06.225Z,35.57
2022-12-09T00:33:35.611Z,36.07
2022-12-09T00:36:08.315Z,36.13
2022-12-09T00:38:36.277Z,36.00
2022-12-09T00:41:05.593Z,38.27
2022-12-09T00:43:33.539Z,36.23
2022-12-09T00:46:01.529Z,37.97
2022-12-09T00:48:30.980Z,35.50
2022-12-09T00:50:58.900Z,36.07
2022-12-09T00:53:26.875Z,34.40
2022-12-09T00:55:54.583Z,35.70
2022-12-09T00:58:22.411Z,36.03
2022-12-09T01:00:50.100Z,35.10
2022-12-09T01:03:19.365Z,35.47
2022-12-09T01:05:48.898Z,34.73
2022-12-09T01:08:16.658Z,35.47
2022-12-09T01:10:45.891Z,37.00
2022-12-09T01:13:15.847Z,34.83
2022-12-09T01:15:44.550Z,38.10
2022-12-09T01:18:13.114Z,38.03
2022-12-09T01:20:40.946Z,38.03
2022-12-09T01:23:09.956Z,36.70
2022-12-09T01:25:38.936Z,38.87
2022-12-09T01:28:06.737Z,39.53
2022-12-09T01:30:34.394Z,38.00
2022-12-09T01:33:02.155Z,39.20
2022-12-09T01:35:30.020Z,40.30
2022-12-09T01:37:57.917Z,38.23
2022-12-09T01:40:26.985Z,37.77
2022-12-09T01:42:54.829Z,37.33
2022-12-09T01:45:49.722Z,38.07
2022-12-09T01:48:20.412Z,38.93
2022-12-09T01:50:52.327Z,37.57
2022-12-09T01:53:22.691Z,39.00
2022-12-09T01:55:51.821Z,38.93
2022-12-09T01:58:20.065Z,37.30
2022-12-09T02:00:48.189Z,38.63
2022-12-09T02:03:16.439Z,38.73
2022-12-09T02:05:44.960Z,42.30
2022-12-09T02:08:14.527Z,40.70
2022-12-09T02:10:49.624Z,45.07
2022-12-09T02:13:27.416Z,44.73
2022-12-09T02:15:58.365Z,44.63
2022-12-09T02:18:30.347Z,46.07
2022-12-09T02:21:02.590Z,43.87
2022-12-09T02:23:38.365Z,44.67
2022-12-09T02:26:14.482Z,42.33
2022-12-09T02:29:13.083Z,48.10
2022-12-09T02:32:20.021Z,44.43
2022-12-09T02:34:55.881Z,45.87
2022-12-09T02:37:30.232Z,48.07
2022-12-09T02:40:03.287Z,50.23
2022-12-09T02:42:35.197Z,54.10
2022-12-09T02:45:05.776Z,62.10
2022-12-09T02:47:37.554Z,51.50
2022-12-09T02:50:11.320Z,61.00
2022-12-09T02:52:40.943Z,52.90
2022-12-09T02:55:11.282Z,50.63
2022-12-09T02:57:40.075Z,49.83
2022-12-09T03:00:09.511Z,43.93
2022-12-09T03:02:42.036Z,43.63
2022-12-09T03:05:17.993Z,45.23
2022-12-09T03:07:55.889Z,48.27
2022-12-09T03:10:28.412Z,78.07
2022-12-09T03:13:02.062Z,53.73
2022-12-09T03:15:34.027Z,50.07
2022-12-09T03:18:05.707Z,60.03
2022-12-09T03:20:40.298Z,51.60
2022-12-09T03:23:12.651Z,44.37
2022-12-09T03:25:43.719Z,43.53
2022-12-09T03:28:17.923Z,44.27
2022-12-09T03:30:46.999Z,50.03
2022-12-09T03:33:19.660Z,42.23
2022-12-09T03:35:53.018Z,44.37
2022-12-09T03:38:23.452Z,44.13
2022-12-09T03:40:59.422Z,53.93
2022-12-09T03:43:30.481Z,56.43
2022-12-09T03:45:59.247Z,49.73
2022-12-09T03:48:27.459Z,51.03
2022-12-09T03:51:00.642Z,54.30
2022-12-09T03:53:36.171Z,52.47
2022-12-09T03:56:09.153Z,44.30
2022-12-09T03:58:41.807Z,44.13
2022-12-09T04:01:10.462Z,45.70
2022-12-09T04:03:39.659Z,42.10
2022-12-09T04:06:09.521Z,43.90
2022-12-09T04:08:37.269Z,48.87
2022-12-09T04:11:05.056Z,65.33
2022-12-09T04:13:33.154Z,61.57
2022-12-09T04:16:00.758Z,72.57
2022-12-09T04:18:28.851Z,59.07
2022-12-09T04:20:56.978Z,58.00
2022-12-09T04:23:26.148Z,51.43
2022-12-09T04:25:53.813Z,66.50
2022-12-09T04:28:21.656Z,63.93
2022-12-09T04:30:49.771Z,78.40
2022-12-09T04:33:17.374Z,68.80
2022-12-09T04:35:45.049Z,62.77
2022-12-09T04:38:12.727Z,55.67
2022-12-09T04:40:41.680Z,52.60
2022-12-09T04:43:09.473Z,59.50
2022-12-09T04:45:38.476Z,55.80
2022-12-09T04:48:06.822Z,59.27
2022-12-09T04:50:34.643Z,55.53
2022-12-09T04:53:02.382Z,48.93
2022-12-09T04:55:30.227Z,62.37
2022-12-09T04:57:59.515Z,54.27
2022-12-09T05:00:28.021Z,68.57
2022-12-09T05:02:56.124Z,54.53
2022-12-09T05:05:24.291Z,59.73
2022-12-09T05:07:52.425Z,57.83
2022-12-09T05:10:20.326Z,61.23
2022-12-09T05:12:48.611Z,54.80
2022-12-09T05:15:17.947Z,61.30
2022-12-09T05:17:46.103Z,49.00
2022-12-09T05:20:14.733Z,51.63
2022-12-09T05:22:42.908Z,49.40
2022-12-09T05:25:11.472Z,47.20
2022-12-09T05:27:39.450Z,48.57
2022-12-09T05:30:08.776Z,45.73
2022-12-09T05:32:38.502Z,50.23
2022-12-09T05:35:06.967Z,52.67
2022-12-09T05:37:35.066Z,51.30
2022-12-09T05:40:03.056Z,51.07
2022-12-09T05:42:32.054Z,54.07
2022-12-09T05:45:03.022Z,51.27
2022-12-09T05:47:30.858Z,47.77
2022-12-09T05:50:04.491Z,50.07
2022-12-09T05:52:36.447Z,47.13
2022-12-09T05:55:05.376Z,48.37
2022-12-09T05:57:35.792Z,51.07
2022-12-09T06:00:06.607Z,49.90
2022-12-09T06:02:34.997Z,46.77
2022-12-09T06:05:04.514Z,46.47
2022-12-09T06:07:33.205Z,48.43
2022-12-09T06:10:01.264Z,45.80
2022-12-09T06:12:29.278Z,46.10
2022-12-09T06:14:57.244Z,47.87
2022-12-09T06:17:24.998Z,44.77
2022-12-09T06:19:52.789Z,43.27
2022-12-09T06:22:21.896Z,46.03
2022-12-09T06:24:54.062Z,48.67
2022-12-09T06:27:24.650Z,45.60
2022-12-09T06:29:52.382Z,45.77
2022-12-09T06:32:20.313Z,47.37
2022-12-09T06:34:48.169Z,46.37
2022-12-09T06:37:16.619Z,47.37
2022-12-09T06:39:45.624Z,50.10
2022-12-09T06:42:13.784Z,46.47
2022-12-09T06:44:41.570Z,44.63
2022-12-09T06:47:09.347Z,47.57
2022-12-09T06:49:37.632Z,48.27
2022-12-09T06:52:05.805Z,45.97
2022-12-09T06:54:33.510Z,44.67
2022-12-09T06:57:02.581Z,45.70
2022-12-09T06:59:30.541Z,46.47
2022-12-09T07:01:58.753Z,47.00
2022-12-09T07:04:27.007Z,44.57
2022-12-09T07:06:55.205Z,43.97
2022-12-09T07:09:23.761Z,45.30
2022-12-09T07:11:51.576Z,46.13
2022-12-09T07:14:21.474Z,44.73
2022-12-09T07:16:49.353Z,45.97
2022-12-09T07:19:19.100Z,45.13
2022-12-09T07:21:47.903Z,46.03
2022-12-09T07:24:16.136Z,42.30
2022-12-09T07:26:44.043Z,44.67
2022-12-09T07:29:11.699Z,45.77
2022-12-09T07:31:40.789Z,46.10
2022-12-09T07:34:09.311Z,45.43
2022-12-09T07:36:38.000Z,42.40
2022-12-09T07:39:07.724Z,42.93
2022-12-09T07:41:35.989Z,44.00
2022-12-09T07:44:04.187Z,44.47
2022-12-09T07:46:32.339Z,44.10
2022-12-09T07:49:03.060Z,44.83
2022-12-09T07:51:31.457Z,43.77
2022-12-09T07:53:59.558Z,43.70
2022-12-09T07:56:28.656Z,44.60
2022-12-09T07:58:58.107Z,44.50
2022-12-09T08:01:28.385Z,43.40
2022-12-09T08:03:58.071Z,42.37
2022-12-09T08:06:29.485Z,43.33
2022-12-09T08:08:59.532Z,43.40
2022-12-09T08:11:29.455Z,44.43
2022-12-09T08:13:58.482Z,40.53
2022-12-09T08:16:27.545Z,42.10
2022-12-09T08:18:56.410Z,41.27
2022-12-09T08:21:26.299Z,42.40
2022-12-09T08:23:56.788Z,40.40
2022-12-09T08:26:27.124Z,40.63
2022-12-09T08:28:55.059Z,40.17
2022-12-09T08:31:25.572Z,41.07
2022-12-09T08:33:54.353Z,42.23
2022-12-09T08:36:24.758Z,42.73
2022-12-09T08:38:53.178Z,41.47
2022-12-09T08:41:35.392Z,39.80
2022-12-09T08:44:05.458Z,40.27
2022-12-09T08:46:34.658Z,42.00
2022-12-09T08:49:02.728Z,41.27
2022-12-09T08:51:31.865Z,41.10
2022-12-09T08:54:00.627Z,40.63
2022-12-09T08:56:29.966Z,39.47
2022-12-09T08:58:58.088Z,40.27
2022-12-09T09:01:32.308Z,41.57
2022-12-09T09:04:02.771Z,41.07
2022-12-09T09:06:31.249Z,40.97
2022-12-09T09:08:59.553Z,40.80
2022-12-09T09:11:29.638Z,40.50
2022-12-09T09:13:57.818Z,40.40
2022-12-09T09:16:27.433Z,40.37
2022-12-09T09:18:55.370Z,42.27
2022-12-09T09:21:26.853Z,42.30
2022-12-09T09:23:55.034Z,42.00
2022-12-09T09:26:25.965Z,39.70
2022-12-09T09:28:56.474Z,40.73
2022-12-09T09:31:25.992Z,41.60
2022-12-09T09:33:54.445Z,39.50
2022-12-09T09:36:24.887Z,42.03
2022-12-09T09:38:54.976Z,41.90
2022-12-09T09:41:29.463Z,41.17
2022-12-09T09:43:59.083Z,41.67
2022-12-09T09:46:36.350Z,40.67
2022-12-09T09:49:06.850Z,40.03
2022-12-09T09:51:36.581Z,41.17
2022-12-09T09:54:08.653Z,39.43
2022-12-09T09:56:43.824Z,40.80
2022-12-09T09:59:21.619Z,39.80
2022-12-09T10:02:01.201Z,38.47
2022-12-09T10:04:37.727Z,40.87
2022-12-09T10:07:19.918Z,40.43
2022-12-09T10:09:55.676Z,40.47
2022-12-09T10:12:32.027Z,39.00
2022-12-09T10:15:10.656Z,38.00
2022-12-09T10:17:45.919Z,39.53
2022-12-09T10:20:17.577Z,38.53
2022-12-09T10:22:51.607Z,39.90
2022-12-09T10:25:24.006Z,39.10
2022-12-09T10:27:58.195Z,42.00
2022-12-09T10:30:34.187Z,38.93
2022-12-09T10:33:05.583Z,40.47
2022-12-09T10:35:34.718Z,42.30
2022-12-09T10:38:09.019Z,40.23
2022-12-09T10:40:47.441Z,41.93
2022-12-09T10:43:35.584Z,41.73
2022-12-09T10:46:18.040Z,41.07
2022-12-09T10:48:54.092Z,43.80
2022-12-09T10:51:23.873Z,42.73
2022-12-09T10:53:55.970Z,44.80
2022-12-09T10:56:26.810Z,44.90
2022-12-09T10:59:10.617Z,43.83
2022-12-09T11:01:52.598Z,45.57
2022-12-09T11:04:26.412Z,45.23
2022-12-09T11:06:59.709Z,42.87
2022-12-09T11:09:30.769Z,42.37
2022-12-09T11:12:00.042Z,43.00
2022-12-09T11:14:32.971Z,42.87
2022-12-09T11:17:18.739Z,45.17
2022-12-09T11:19:51.497Z,43.73
2022-12-09T11:22:29.311Z,44.80
2022-12-09T11:25:16.808Z,42.03
2022-12-09T11:27:50.898Z,43.83
2022-12-09T11:30:20.770Z,45.10
2022-12-09T11:33:19.591Z,42.63
2022-12-09T11:35:59.064Z,43.43
2022-12-09T11:38:34.243Z,43.60
2022-12-09T11:41:14.007Z,42.73
2022-12-09T11:43:47.011Z,43.87
2022-12-09T11:46:22.493Z,42.50
2022-12-09T11:48:56.355Z,46.33
2022-12-09T11:51:26.840Z,43.73
2022-12-09T11:54:03.311Z,43.77
2022-12-09T11:56:31.428Z,43.77
2022-12-09T11:59:03.167Z,43.60
2022-12-09T12:01:39.242Z,41.67
2022-12-09T12:04:11.774Z,42.53
2022-12-09T12:06:46.594Z,42.90
2022-12-09T12:09:21.422Z,41.80
2022-12-09T12:11:58.481Z,42.77
2022-12-09T12:14:30.133Z,42.20
2022-12-09T12:17:03.490Z,41.53
2022-12-09T12:19:35.574Z,42.97
2022-12-09T12:22:26.092Z,40.93
2022-12-09T12:25:17.080Z,41.30
2022-12-09T12:28:02.044Z,44.30
2022-12-09T12:30:39.067Z,44.27
2022-12-09T12:34:00.336Z,44.13
2022-12-09T12:36:30.031Z,43.10
2022-12-09T12:39:07.326Z,44.00
2022-12-09T12:41:42.667Z,44.40
2022-12-09T12:44:41.272Z,42.63
2022-12-09T12:47:18.868Z,44.53
2022-12-09T12:50:04.078Z,45.47
2022-12-09T12:52:59.536Z,43.60
2022-12-09T12:55:49.268Z,42.90
2022-12-09T12:58:29.503Z,42.10
2022-12-09T13:01:08.898Z,41.10
2022-12-09T13:03:44.571Z,44.37
2022-12-09T13:06:17.173Z,42.70
2022-12-09T13:08:51.685Z,42.67
2022-12-09T13:11:23.175Z,40.87
2022-12-09T13:13:55.564Z,40.33
2022-12-09T13:16:28.565Z,43.97
2022-12-09T13:19:03.523Z,42.90
2022-12-09T13:21:31.192Z,44.33
2022-12-09T13:24:08.575Z,42.07
2022-12-09T13:26:44.127Z,41.07
2022-12-09T13:29:29.938Z,41.67
2022-12-09T13:32:05.063Z,41.60
2022-12-09T13:34:38.415Z,40.73
2022-12-09T13:37:08.231Z,41.13
2022-12-09T13:39:58.158Z,40.97
2022-12-09T13:42:57.141Z,41.43
2022-12-09T13:45:29.162Z,40.17
2022-12-09T13:47:58.171Z,39.80
2022-12-09T13:50:28.874Z,42.57
2022-12-09T13:52:58.720Z,43.00
2022-12-09T13:55:34.778Z,42.77
2022-12-09T13:58:27.125Z,41.60
2022-12-09T14:01:17.078Z,40.33
2022-12-09T14:03:53.846Z,46.20
2022-12-09T14:06:26.043Z,44.43
2022-12-09T14:08:58.624Z,43.37
2022-12-09T14:11:47.328Z,43.80
2022-12-09T14:14:57.668Z,41.97
2022-12-09T14:18:02.793Z,42.93
2022-12-09T14:20:34.167Z,43.20
2022-12-09T14:23:19.647Z,42.77
2022-12-09T14:26:04.471Z,42.00
2022-12-09T14:29:00.770Z,40.97
2022-12-09T14:31:46.003Z,50.73
2022-12-09T14:34:27.948Z,45.03
2022-12-09T14:37:03.254Z,43.03
2022-12-09T14:39:37.153Z,43.83
2022-12-09T14:42:10.531Z,43.13
2022-12-09T14:44:46.963Z,42.90
2022-12-09T14:47:19.482Z,46.27
2022-12-09T14:49:49.508Z,46.20
2022-12-09T14:52:23.240Z,47.97
2022-12-09T14:54:52.286Z,51.83
2022-12-09T14:57:23.918Z,47.37
2022-12-09T14:59:54.932Z,47.57
2022-12-09T15:02:24.523Z,48.40
2022-12-09T15:04:53.597Z,49.87
2022-12-09T15:07:23.193Z,46.10
2022-12-09T15:09:56.466Z,54.33
2022-12-09T15:12:27.799Z,62.97
2022-12-09T15:15:03.619Z,54.60
2022-12-09T15:17:36.876Z,57.90
2022-12-09T15:20:05.899Z,71.83
2022-12-09T15:22:34.083Z,64.13
2022-12-09T15:25:03.059Z,74.47
2022-12-09T15:27:31.499Z,71.40
2022-12-09T15:30:00.700Z,67.10
2022-12-09T15:32:31.074Z,63.67
2022-12-09T15:35:16.512Z,67.97
2022-12-09T15:37:45.455Z,62.70
2022-12-09T15:40:18.179Z,58.60
2022-12-09T15:42:49.055Z,61.77
2022-12-09T15:45:21.887Z,62.90
2022-12-09T15:47:54.583Z,64.10
2022-12-09T15:50:26.343Z,65.30
2022-12-09T15:52:56.867Z,65.53
2022-12-09T15:55:31.580Z,61.17
2022-12-09T15:58:01.626Z,65.03
2022-12-09T16:00:30.751Z,68.27
2022-12-09T16:02:58.572Z,69.67
2022-12-09T16:05:27.223Z,59.27
2022-12-09T16:07:57.826Z,66.97
2022-12-09T16:10:27.623Z,74.40
2022-12-09T16:13:09.496Z,70.83
2022-12-09T16:15:53.533Z,69.43
2022-12-09T16:18:24.460Z,74.63
2022-12-09T16:21:03.195Z,67.30
2022-12-09T16:23:30.858Z,62.87
2022-12-09T16:26:07.367Z,67.90
2022-12-09T16:28:35.780Z,67.33
2022-12-09T16:31:17.582Z,67.47
2022-12-09T16:33:49.582Z,68.23
2022-12-09T16:36:20.286Z,70.17
2022-12-09T16:39:35.531Z,68.60
2022-12-09T16:42:03.420Z,65.77
2022-12-09T16:44:36.079Z,59.10
2022-12-09T16:47:11.794Z,56.30
2022-12-09T16:49:40.446Z,59.07
2022-12-09T16:52:12.320Z,55.23
2022-12-09T16:54:40.042Z,58.23
2022-12-09T16:57:07.630Z,62.90
2022-12-09T16:59:38.014Z,60.87
2022-12-09T17:02:15.952Z,65.30
2022-12-09T17:04:43.684Z,58.03
2022-12-09T17:07:11.279Z,65.17
2022-12-09T17:09:38.896Z,72.63
2022-12-09T17:12:06.979Z,59.07
2022-12-09T17:14:34.566Z,56.73
2022-12-09T17:17:02.736Z,60.47
2022-12-09T17:19:32.123Z,64.67
2022-12-09T17:21:59.828Z,69.77
2022-12-09T17:24:27.503Z,62.30
2022-12-09T17:26:55.108Z,63.73
2022-12-09T17:29:22.751Z,50.03
2022-12-09T17:31:51.854Z,65.97
2022-12-09T17:34:19.585Z,70.03
2022-12-09T17:36:48.774Z,67.90
2022-12-09T17:39:16.428Z,69.27
2022-12-09T17:41:44.257Z,68.10
2022-12-09T17:44:11.847Z,57.00
2022-12-09T17:46:39.463Z,65.27
2022-12-09T17:49:07.131Z,63.30
2022-12-09T17:51:36.557Z,62.33
2022-12-09T17:54:06.199Z,73.93
2022-12-09T17:56:34.304Z,62.63
2022-12-09T17:59:07.168Z,64.50
2022-12-09T18:01:36.404Z,56.63
2022-12-09T18:04:09.540Z,56.03
2022-12-09T18:06:40.577Z,63.10
2022-12-09T18:09:11.585Z,62.80
2022-12-09T18:11:39.709Z,59.73
2022-12-09T18:14:07.967Z,57.50
2022-12-09T18:16:35.652Z,53.93
2022-12-09T18:19:04.315Z,56.33
2022-12-09T18:21:31.927Z,58.90
2022-12-09T18:23:59.527Z,62.63
2022-12-09T18:26:32.000Z,54.10
2022-12-09T18:29:01.738Z,58.07
2022-12-09T18:31:29.765Z,56.00
2022-12-09T18:33:57.506Z,59.20
2022-12-09T18:36:27.006Z,54.13
2022-12-09T18:38:54.903Z,58.90
2022-12-09T18:41:25.218Z,58.17
2022-12-09T18:43:55.447Z,65.60
2022-12-09T18:46:26.229Z,59.33
2022-12-09T18:48:58.347Z,59.87
2022-12-09T18:51:26.299Z,60.37
2022-12-09T18:53:53.954Z,53.60
2022-12-09T18:56:21.714Z,57.07
2022-12-09T18:59:05.851Z,52.27
2022-12-09T19:01:40.406Z,54.73
2022-12-09T19:04:11.429Z,50.90
2022-12-09T19:06:41.311Z,51.90
2022-12-09T19:09:10.750Z,49.87
2022-12-09T19:11:40.092Z,54.77
2022-12-09T19:14:09.323Z,52.50
2022-12-09T19:16:38.601Z,51.40
2022-12-09T19:19:09.940Z,56.40
2022-12-09T19:21:39.279Z,51.90
2022-12-09T19:24:08.324Z,52.67
2022-12-09T19:26:37.439Z,61.90
2022-12-09T19:29:07.615Z,60.37
2022-12-09T19:31:39.153Z,61.93
2022-12-09T19:34:09.196Z,60.23
2022-12-09T19:36:37.404Z,57.23
2022-12-09T19:39:08.257Z,64.20
2022-12-09T19:41:38.588Z,57.80
2022-12-09T19:44:07.018Z,60.67
2022-12-09T19:46:38.553Z,59.70
2022-12-09T19:49:08.168Z,55.30
2022-12-09T19:51:35.801Z,61.33
2022-12-09T19:54:03.537Z,57.80
2022-12-09T19:56:31.467Z,59.83
2022-12-09T19:59:00.456Z,55.07
2022-12-09T20:01:29.934Z,58.60
2022-12-09T20:04:08.903Z,52.90
2022-12-09T20:06:49.001Z,53.63
2022-12-09T20:09:24.112Z,52.73
2022-12-09T20:11:52.702Z,52.77
2022-12-09T20:14:20.303Z,53.97
2022-12-09T20:16:47.906Z,50.03
2022-12-09T20:19:15.540Z,60.10
2022-12-09T20:21:43.190Z,55.37
2022-12-09T20:24:12.137Z,57.90
2022-12-09T20:26:39.763Z,53.07
2022-12-09T20:29:09.128Z,55.23
2022-12-09T20:31:38.686Z,54.07
2022-12-09T20:34:08.396Z,52.87
2022-12-09T20:36:38.295Z,51.07
2022-12-09T20:39:12.290Z,56.00
2022-12-09T20:41:42.383Z,54.73
2022-12-09T20:44:11.097Z,54.27
2022-12-09T20:46:39.982Z,58.47
2022-12-09T20:49:07.712Z,64.33
2022-12-09T20:51:37.300Z,63.10
2022-12-09T20:54:06.098Z,64.93
2022-12-09T20:56:34.478Z,60.40
2022-12-09T20:59:04.686Z,61.80
2022-12-09T21:01:34.902Z,61.73
2022-12-09T21:04:05.787Z,55.33
2022-12-09T21:06:35.298Z,62.50
2022-12-09T21:09:05.014Z,59.90
2022-12-09T21:11:33.422Z,70.10
2022-12-09T21:14:04.723Z,60.70
2022-12-09T21:16:33.813Z,61.83
2022-12-09T21:19:05.638Z,67.73
2022-12-09T21:21:35.003Z,75.83
2022-12-09T21:24:03.476Z,68.67
2022-12-09T21:26:31.407Z,68.73
2022-12-09T21:29:00.532Z,68.90
2022-12-09T21:31:32.639Z,61.57
2022-12-09T21:34:03.438Z,74.33
2022-12-09T21:36:33.488Z,70.13
2022-12-09T21:39:01.921Z,67.97
2022-12-09T21:41:32.427Z,68.60
2022-12-09T21:44:00.074Z,73.10
2022-12-09T21:46:30.750Z,73.30
2022-12-09T21:49:03.588Z,68.13
2022-12-09T21:51:32.526Z,71.00
2022-12-09T21:54:00.286Z,62.17
2022-12-09T21:56:30.257Z,69.60
2022-12-09T21:58:59.612Z,67.70
2022-12-09T22:01:30.994Z,66.23
2022-12-09T22:04:00.749Z,69.00
2022-12-09T22:06:29.287Z,74.07
2022-12-09T22:08:58.996Z,73.17
2022-12-09T22:11:28.755Z,74.10
2022-12-09T22:13:58.035Z,73.07
2022-12-09T22:16:31.899Z,83.00
2022-12-09T22:19:01.171Z,72.03
2022-12-09T22:21:31.133Z,79.40
2022-12-09T22:24:01.283Z,80.37
2022-12-09T22:26:29.082Z,68.00
2022-12-09T22:28:57.135Z,60.40
2022-12-09T22:31:26.785Z,54.73
2022-12-09T22:33:59.759Z,57.83
2022-12-09T22:36:28.414Z,56.30
2022-12-09T22:38:56.485Z,57.97
2022-12-09T22:41:25.666Z,53.63
2022-12-09T22:43:55.179Z,56.07
2022-12-09T22:46:25.234Z,66.47
2022-12-09T22:48:53.191Z,58.13
2022-12-09T22:51:24.251Z,61.97
2022-12-09T22:53:54.016Z,61.43
2022-12-09T22:56:22.585Z,57.50
2022-12-09T22:58:50.214Z,58.33
2022-12-09T23:01:20.167Z,69.43
2022-12-09T23:03:48.159Z,59.30
2022-12-09T23:06:16.330Z,57.43
2022-12-09T23:08:46.628Z,55.03
2022-12-09T23:11:16.454Z,61.10
2022-12-09T23:13:44.678Z,56.90
2022-12-09T23:16:14.471Z,53.70
2022-12-09T23:18:42.918Z,65.07
2022-12-09T23:21:12.725Z,59.57
2022-12-09T23:23:41.196Z,58.90
2022-12-09T23:26:12.674Z,57.40
2022-12-09T23:28:42.617Z,57.23
2022-12-09T23:31:11.972Z,61.20
2022-12-09T23:33:41.432Z,53.53
2022-12-09T23:36:11.195Z,49.10
2022-12-09T23:38:39.221Z,52.03
2022-12-09T23:41:07.635Z,50.93
2022-12-09T23:43:38.026Z,50.50
2022-12-09T23:46:14.556Z,50.23
2022-12-09T23:48:43.390Z,51.47
2022-12-09T23:51:12.532Z,55.77
2022-12-09T23:53:40.885Z,53.80
2022-12-09T23:56:11.188Z,52.13
2022-12-09T23:58:40.246Z,48.63
